Time;durP1;ratioP1;P1;durP2;ratioP2;P2;SDS_P1;SDS_P2;PMS_P1;PMS_P2;Temp;Humidity;BMP_temperature;BMP_pressure;BME280_temperature;BME280_humidity;BME280_pressure;Samples;Min_cycle;Max_cycle;Signal;HPM_P1;HPM_P2
2022/02/02 00:02:03;;;;;;;43.40;24.30;;;;;;;0.08;100.00;100424.84;1723140;83;21881;-81
2022/02/02 00:04:27;;;;;;;50.05;28.12;;;;;;;0.06;100.00;100418.11;1723502;81;21045;-79
2022/02/02 00:07:04;;;;;;;38.67;24.55;;;;;;;0.05;100.00;100426.68;1723487;81;21069;-81
2022/02/02 00:09:23;;;;;;;38.85;22.95;;;;;;;0.03;100.00;100427.20;1723325;83;21069;-80
2022/02/02 00:12:42;;;;;;;37.42;22.70;;;;;;;0.02;100.00;100424.24;1726737;83;21038;-80
2022/02/02 00:16:57;;;;;;;41.37;24.32;;;;;;;0.01;100.00;100431.07;1726650;81;21211;-80
2022/02/02 00:19:34;;;;;;;37.83;24.98;;;;;;;0.03;100.00;100432.32;1726291;81;21492;-81
2022/02/02 00:21:53;;;;;;;38.98;23.92;;;;;;;0.03;100.00;100425.92;1723625;83;21014;-81
2022/02/02 00:26:54;;;;;;;37.08;24.77;;;;;;;0.01;100.00;100411.05;1726880;81;21867;-80
2022/02/02 00:29:23;;;;;;;40.48;26.23;;;;;;;0.02;100.00;100417.84;1723398;83;21098;-79
2022/02/02 00:32:00;;;;;;;40.25;25.60;;;;;;;0.00;100.00;100410.23;1734347;81;20958;-80
2022/02/02 00:34:24;;;;;;;44.23;27.27;;;;;;;-0.02;100.00;100403.86;1754405;81;21002;-79
2022/02/02 00:36:56;;;;;;;48.10;29.07;;;;;;;-0.02;100.00;100401.75;1755419;81;21053;-79
2022/02/02 00:39:24;;;;;;;60.40;31.70;;;;;;;-0.05;100.00;100384.78;1754940;81;21147;-80
2022/02/02 00:41:54;;;;;;;57.33;31.07;;;;;;;-0.07;100.00;100383.13;1759196;81;20970;-83
2022/02/02 00:44:22;;;;;;;48.78;28.20;;;;;;;-0.13;100.00;100381.64;1759049;81;21033;-81
2022/02/02 00:46:50;;;;;;;49.40;29.67;;;;;;;-0.15;100.00;100387.25;1759187;81;21519;-80
2022/02/02 00:49:18;;;;;;;45.65;28.23;;;;;;;-0.15;100.00;100394.94;1759140;81;21163;-79
2022/02/02 00:51:46;;;;;;;46.23;28.00;;;;;;;-0.17;100.00;100389.02;1780792;80;21088;-80
2022/02/02 00:54:21;;;;;;;43.78;28.15;;;;;;;-0.19;100.00;100388.23;1790277;80;21033;-79
2022/02/02 00:56:50;;;;;;;49.27;30.35;;;;;;;-0.20;100.00;100382.75;1789692;80;21080;-82
2022/02/02 00:59:18;;;;;;;50.80;29.42;;;;;;;-0.24;100.00;100373.03;1789990;80;21057;-82
2022/02/02 01:01:46;;;;;;;45.55;28.02;;;;;;;-0.28;100.00;100377.88;1790166;80;21077;-80
2022/02/02 01:04:13;;;;;;;49.98;28.45;;;;;;;-0.30;100.00;100376.26;1790071;80;21811;-80
2022/02/02 01:07:02;;;;;;;54.33;30.12;;;;;;;-0.29;100.00;100379.22;1789701;80;21014;-79
2022/02/02 01:09:29;;;;;;;54.80;29.10;;;;;;;-0.25;100.00;100373.09;1785359;80;21550;-81
2022/02/02 01:20:29;;;;;;;54.85;28.95;;;;;;;-0.19;100.00;100372.87;1789814;80;22772;-80
2022/02/02 01:28:14;;;;;;;57.95;32.48;;;;;;;-0.22;100.00;100363.59;1761065;80;21037;-80
2022/02/02 01:30:42;;;;;;;56.88;33.67;;;;;;;-0.21;100.00;100367.00;1761083;80;21042;-80
2022/02/02 01:33:08;;;;;;;61.55;35.70;;;;;;;-0.22;100.00;100357.64;1789755;80;21010;-80
2022/02/02 01:35:35;;;;;;;67.67;37.58;;;;;;;-0.22;100.00;100352.06;1790006;80;21597;-80
2022/02/02 01:38:04;;;;;;;69.53;39.42;;;;;;;-0.23;100.00;100361.09;1790044;80;20998;-80
2022/02/02 01:40:36;;;;;;;57.03;33.67;;;;;;;-0.27;100.00;100369.31;1789930;80;21772;-82
2022/02/02 01:43:06;;;;;;;66.02;39.70;;;;;;;-0.28;100.00;100365.53;1758100;80;21167;-82
2022/02/02 01:45:41;;;;;;;67.15;37.45;;;;;;;-0.23;100.00;100359.34;1785649;80;21065;-81
2022/02/02 01:56:10;;;;;;;65.35;37.20;;;;;;;-0.18;100.00;100355.36;1789776;80;21591;-80
2022/02/02 02:01:23;;;;;;;67.80;38.28;;;;;;;-0.13;100.00;100355.20;1758336;80;21077;-80
2022/02/02 02:03:50;;;;;;;66.85;37.23;;;;;;;-0.09;100.00;100361.90;1758591;80;21037;-80
2022/02/02 02:06:18;;;;;;;64.15;37.35;;;;;;;-0.05;100.00;100352.78;1758359;80;21022;-81
2022/02/02 02:08:45;;;;;;;78.37;42.58;;;;;;;0.02;100.00;100348.72;1758350;80;21880;-80
2022/02/02 02:11:16;;;;;;;69.47;39.42;;;;;;;0.05;100.00;100358.41;1758512;80;21557;-81
2022/02/02 02:16:27;;;;;;;55.58;31.35;;;;;;;0.06;100.00;100343.86;1758698;80;21021;-80
2022/02/02 02:19:00;;;;;;;45.15;25.90;;;;;;;0.00;100.00;100344.94;1758220;80;21112;-80
2022/02/02 02:21:30;;;;;;;42.23;22.82;;;;;;;-0.10;100.00;100334.17;1753832;80;21013;-82
2022/02/02 02:23:59;;;;;;;42.45;23.30;;;;;;;-0.19;100.00;100339.17;1782018;80;21065;-83
2022/02/02 02:26:28;;;;;;;49.20;25.57;;;;;;;-0.26;100.00;100335.59;1761685;80;21083;-82
2022/02/02 02:31:44;;;;;;;49.23;29.20;;;;;;;-0.41;100.00;100323.72;1781366;80;21057;-81
2022/02/02 03:30:14;;;;;;;62.35;32.85;;;;;;;-0.92;100.00;100251.72;1751266;80;21734;-82
2022/02/02 03:49:17;;;;;;;53.00;27.70;;;;;;;-0.96;100.00;100249.25;1782039;79;21596;-82
2022/02/02 03:57:18;;;;;;;57.50;30.97;;;;;;;-0.73;100.00;100259.14;1782187;79;21023;-83
2022/02/02 04:07:22;;;;;;;52.98;28.40;;;;;;;-0.93;100.00;100264.92;1743030;80;21696;-83
2022/02/02 04:09:51;;;;;;;56.63;31.35;;;;;;;-0.92;100.00;100268.33;1755092;79;20961;-81
2022/02/02 04:17:50;;;;;;;59.48;33.02;;;;;;;-0.89;100.00;100266.51;1761063;80;21061;-83
2022/02/02 04:51:20;;;;;;;43.42;23.65;;;;;;;-0.93;100.00;100264.10;1708791;82;21598;-83
2022/02/02 04:55:36;;;;;;;61.90;28.17;;;;;;;0.98;100.00;100264.38;1720906;81;21050;-86
2022/02/02 05:06:00;;;;;;;42.08;25.55;;;;;;;0.88;100.00;100259.62;1737811;81;20971;-78
2022/02/02 05:11:04;;;;;;;46.23;25.15;;;;;;;0.27;100.00;100255.17;1749785;80;21089;-80
2022/02/02 05:43:45;;;;;;;42.03;24.55;;;;;;;-1.11;100.00;100281.24;1733433;80;21285;-78
2022/02/02 05:51:21;;;;;;;34.65;20.40;;;;;;;-1.22;100.00;100290.98;1712843;80;21061;-79
2022/02/02 05:53:44;;;;;;;35.48;21.30;;;;;;;-1.23;100.00;100284.20;1743271;80;21586;-78
2022/02/02 05:56:11;;;;;;;40.83;24.47;;;;;;;-1.25;100.00;100288.52;1762861;79;21073;-79
2022/02/02 05:58:39;;;;;;;39.67;23.25;;;;;;;-1.29;100.00;100286.50;1738828;79;21037;-79
2022/02/02 06:01:09;;;;;;;38.78;23.98;;;;;;;-1.26;100.00;100283.01;1771604;79;21012;-78
2022/02/02 06:03:57;;;;;;;28.83;19.27;;;;;;;-1.24;100.00;100286.81;1767355;81;21573;-78
2022/02/02 06:06:25;;;;;;;39.27;24.60;;;;;;;-1.23;100.00;100277.81;1738290;81;21063;-77
2022/02/02 06:08:55;;;;;;;40.03;21.42;;;;;;;-1.18;100.00;100278.95;1771408;79;21041;-78
2022/02/02 06:11:26;;;;;;;37.13;22.52;;;;;;;-1.14;100.00;100276.25;1771015;79;21108;-78
2022/02/02 06:14:00;;;;;;;37.33;21.75;;;;;;;-1.11;100.00;100284.25;1738650;79;21025;-79
2022/02/02 06:16:28;;;;;;;36.73;20.88;;;;;;;-1.06;100.00;100284.94;1771085;79;21052;-78
2022/02/02 06:18:57;;;;;;;45.70;30.52;;;;;;;-1.00;100.00;100280.07;1771493;79;21147;-78
2022/02/02 06:21:31;;;;;;;32.80;18.82;;;;;;;-1.00;100.00;100282.17;1738864;81;21612;-79
2022/02/02 06:24:11;;;;;;;33.18;18.87;;;;;;;-1.00;100.00;100294.13;1772059;79;21075;-78
2022/02/02 06:26:41;;;;;;;75.45;44.75;;;;;;;-1.04;100.00;100303.62;1706174;82;21111;-79
2022/02/02 06:29:12;;;;;;;88.75;46.48;;;;;;;-1.09;100.00;100302.94;1766443;79;21040;-77
2022/02/02 06:31:41;;;;;;;57.38;34.92;;;;;;;-1.14;100.00;100297.12;1772229;79;21956;-78
2022/02/02 06:34:13;;;;;;;44.27;28.25;;;;;;;-1.19;100.00;100296.44;1775864;79;20997;-78
2022/02/02 06:36:42;;;;;;;36.08;22.65;;;;;;;-1.24;100.00;100295.30;1746908;80;21001;-79
2022/02/02 06:39:12;;;;;;;35.90;21.20;;;;;;;-1.21;100.00;100291.81;1779995;79;21629;-78
2022/02/02 06:41:39;;;;;;;40.90;23.05;;;;;;;-1.17;100.00;100287.83;1780487;79;21624;-78
2022/02/02 06:44:07;;;;;;;37.15;21.23;;;;;;;-1.10;100.00;100280.81;1779707;79;21185;-79
2022/02/02 06:46:38;;;;;;;37.05;20.52;;;;;;;-1.00;100.00;100278.34;1749231;80;21562;-78
2022/02/02 06:49:04;;;;;;;36.85;21.57;;;;;;;-0.91;100.00;100275.09;1776181;79;21024;-78
2022/02/02 06:54:22;;;;;;;36.23;23.07;;;;;;;-0.78;100.00;100272.54;1780725;79;21403;-79
2022/02/02 06:57:06;;;;;;;45.67;25.10;;;;;;;-0.73;100.00;100271.11;1775771;79;21152;-79
2022/02/02 07:05:08;;;;;;;39.85;23.27;;;;;;;-0.73;100.00;100266.81;1780929;79;21041;-81
2022/02/02 07:12:58;;;;;;;32.42;19.57;;;;;;;-0.69;100.00;100248.37;1776565;79;20914;-79
2022/02/02 07:15:40;;;;;;;33.78;16.73;;;;;;;-0.71;100.00;100257.37;1777915;79;21535;-80
2022/02/02 07:18:25;;;;;;;32.00;17.65;;;;;;;-0.65;100.00;100250.77;1776342;79;21675;-80
2022/02/02 07:26:04;;;;;;;25.90;15.30;;;;;;;-0.45;100.00;100254.80;1780675;79;21072;-81
2022/02/02 07:28:27;;;;;;;27.50;15.45;;;;;;;-0.41;100.00;100253.36;1776133;79;21009;-79
2022/02/02 07:31:06;;;;;;;28.10;15.72;;;;;;;-0.32;100.00;100259.44;1776165;79;20990;-80
2022/02/02 07:33:39;;;;;;;28.15;18.07;;;;;;;-0.20;100.00;100259.91;1748168;79;20930;-80
2022/02/02 07:36:15;;;;;;;25.92;15.32;;;;;;;-0.14;100.00;100266.50;1757845;79;21503;-79
2022/02/02 07:38:48;;;;;;;25.08;15.28;;;;;;;-0.13;100.00;100269.02;1757740;79;20986;-80
2022/02/02 07:41:26;;;;;;;26.65;15.30;;;;;;;-0.06;100.00;100270.89;1756093;79;21021;-80
2022/02/02 07:44:01;;;;;;;22.55;14.70;;;;;;;-0.02;100.00;100268.17;1759369;79;21140;-80
2022/02/02 07:46:28;;;;;;;24.02;14.50;;;;;;;0.06;100.00;100276.02;1733968;81;21578;-80
2022/02/02 07:48:55;;;;;;;21.35;13.38;;;;;;;0.10;100.00;100276.30;1761570;79;21146;-79
2022/02/02 07:51:26;;;;;;;22.82;14.20;;;;;;;0.10;100.00;100262.22;1761108;79;21464;-81
2022/02/02 07:53:57;;;;;;;25.35;15.25;;;;;;;0.10;100.00;100268.16;1734250;81;21069;-80
2022/02/02 07:56:29;;;;;;;25.40;15.90;;;;;;;0.14;100.00;100259.48;1757990;79;21002;-80
2022/02/02 07:59:11;;;;;;;23.90;14.65;;;;;;;0.15;100.00;100257.75;1757923;79;21531;-80
2022/02/02 08:01:23;;;;;;;24.25;14.33;;;;;;;0.14;100.00;100250.95;1757925;79;22177;-80
2022/02/02 08:03:55;;;;;;;25.23;14.90;;;;;;;0.15;100.00;100252.62;1761470;79;21560;-81
2022/02/02 08:06:25;;;;;;;26.15;16.12;;;;;;;0.19;100.00;100249.08;1757773;79;21090;-80
2022/02/02 08:08:51;;;;;;;30.27;19.45;;;;;;;0.22;100.00;100250.68;1757637;81;21357;-79
2022/02/02 08:11:27;;;;;;;29.90;18.32;;;;;;;0.20;100.00;100254.56;1761249;79;21034;-79
2022/02/02 08:13:54;;;;;;;32.63;19.25;;;;;;;0.18;100.00;100255.09;1733680;80;21025;-79
2022/02/02 08:16:17;;;;;;;26.37;16.87;;;;;;;0.21;100.00;100257.97;1757699;79;20974;-79
2022/02/02 08:18:46;;;;;;;34.60;27.02;;;;;;;0.27;100.00;100266.70;1761374;79;21117;-80
2022/02/02 08:21:13;;;;;;;34.85;21.93;;;;;;;0.33;100.00;100260.52;1757477;79;21657;-80
2022/02/02 08:23:40;;;;;;;28.40;17.98;;;;;;;0.38;100.00;100267.56;1761402;79;21048;-78
2022/02/02 08:26:13;;;;;;;22.85;15.32;;;;;;;0.42;100.00;100267.85;1761701;79;21168;-79
2022/02/02 08:28:38;;;;;;;26.30;15.93;;;;;;;0.45;100.00;100254.91;1734014;79;21092;-79
2022/02/02 08:31:05;;;;;;;22.20;14.45;;;;;;;0.50;100.00;100264.98;1761859;79;21014;-80
2022/02/02 08:33:37;;;;;;;21.07;14.47;;;;;;;0.53;100.00;100248.22;1761706;79;21591;-80
2022/02/02 08:36:04;;;;;;;22.37;14.47;;;;;;;0.59;100.00;100251.81;1789754;78;21080;-81
2022/02/02 08:38:52;;;;;;;18.42;13.88;;;;;;;0.63;100.00;100245.69;1764126;78;21142;-80
2022/02/02 08:41:16;;;;;;;23.75;14.40;;;;;;;0.68;100.00;100253.20;1791135;78;21032;-79
2022/02/02 08:43:48;;;;;;;22.60;15.10;;;;;;;0.70;100.00;100247.53;1790736;78;21031;-79
2022/02/02 08:46:20;;;;;;;20.45;14.03;;;;;;;0.69;100.00;100250.56;1791150;79;21020;-81
2022/02/02 08:48:43;;;;;;;21.77;15.00;;;;;;;0.63;100.00;100234.97;1790770;78;20984;-79
2022/02/02 08:51:13;;;;;;;25.27;16.17;;;;;;;0.61;100.00;100244.45;1791115;79;21805;-80
2022/02/02 08:53:54;;;;;;;26.68;15.78;;;;;;;0.56;100.00;100242.52;1790967;78;21044;-78
2022/02/02 08:58:43;;;;;;;19.05;14.23;;;;;;;0.52;100.00;100237.58;1764067;79;21115;-80
2022/02/02 09:01:16;;;;;;;25.97;17.20;;;;;;;0.49;100.00;100238.53;1791060;78;21107;-80
2022/02/02 09:06:24;;;;;;;21.42;13.72;;;;;;;0.59;100.00;100234.72;1795554;78;21001;-80
2022/02/02 09:09:01;;;;;;;22.62;15.08;;;;;;;0.61;100.00;100226.97;1795394;78;20997;-80
2022/02/02 09:35:27;;;;;;;31.15;19.65;;;;;;;1.02;100.00;100197.95;1781059;77;21013;-80
2022/02/02 09:37:54;;;;;;;28.17;18.42;;;;;;;1.01;100.00;100203.55;1743126;79;21695;-80
2022/02/02 09:43:13;;;;;;;53.78;27.55;;;;;;;0.99;100.00;100210.92;1765520;79;21146;-80
2022/02/02 09:45:39;;;;;;;38.85;24.50;;;;;;;1.02;100.00;100199.23;1770951;80;21002;-81
2022/02/02 09:48:14;;;;;;;37.98;21.95;;;;;;;0.97;100.00;100202.00;1780177;80;22106;-80
2022/02/02 09:50:45;;;;;;;34.98;21.95;;;;;;;0.91;100.00;100199.70;1750281;80;21023;-80
2022/02/02 09:53:08;;;;;;;36.03;22.05;;;;;;;0.87;100.00;100183.61;1776784;80;21046;-81
2022/02/02 10:07:12;;;;;;;41.00;26.35;;;;;;;1.00;100.00;100170.29;1776745;79;21085;-82
2022/02/02 10:14:35;;;;;;;47.33;27.48;;;;;;;1.09;100.00;100154.48;1769742;79;21738;-80
2022/02/02 10:17:09;;;;;;;39.67;23.45;;;;;;;1.19;100.00;100145.50;1750257;80;20971;-81
2022/02/02 10:19:36;;;;;;;41.65;22.52;;;;;;;1.30;100.00;100145.48;1746460;80;21089;-81
2022/02/02 10:22:23;;;;;;;37.15;21.97;;;;;;;1.40;100.00;100150.14;1750724;79;21165;-82
2022/02/02 10:24:53;;;;;;;36.80;21.93;;;;;;;1.48;100.00;100137.42;1770498;80;21653;-81
2022/02/02 10:27:34;;;;;;;39.48;24.15;;;;;;;1.48;100.00;100128.00;1781234;80;21066;-81
2022/02/02 10:30:09;;;;;;;49.23;28.35;;;;;;;1.50;100.00;100115.91;1777224;80;21038;-81
2022/02/02 10:32:45;;;;;;;45.25;28.25;;;;;;;1.55;100.00;100112.70;1779393;79;21015;-82
2022/02/02 10:35:42;;;;;;;40.05;26.57;;;;;;;1.63;100.00;100104.64;1750152;80;21105;-82
2022/02/02 10:38:16;;;;;;;49.53;27.13;;;;;;;1.66;100.00;100100.66;1713562;82;21629;-82
2022/02/02 10:41:59;;;;;;;39.98;25.77;;;;;;;1.72;100.00;100103.40;1746418;80;21029;-82
2022/02/02 10:43:48;;;;;;;47.73;28.35;;;;;;;1.84;100.00;100098.96;1729388;80;21069;-82
2022/02/02 10:50:07;;;;;;;52.20;26.30;;;;;;;2.04;100.00;100098.48;1718790;82;21151;-81
2022/02/02 10:51:57;;;;;;;50.08;25.37;;;;;;;2.09;100.00;100099.08;1718857;79;21151;-89
2022/02/02 10:54:41;;;;;;;43.85;29.18;;;;;;;2.34;100.00;100091.01;1746599;81;21057;-81
2022/02/02 11:08:04;;;;;;;41.90;27.52;;;;;;;3.33;100.00;100069.70;1739292;81;21112;-84
2022/02/02 11:10:33;;;;;;;54.35;27.10;;;;;;;3.31;100.00;100063.83;1743560;80;21120;-84
2022/02/02 11:13:02;;;;;;;40.63;23.90;;;;;;;3.23;100.00;100064.22;1726492;82;21465;-85
2022/02/02 11:15:54;;;;;;;41.10;23.65;;;;;;;3.25;100.00;100064.98;1741805;82;21842;-85
2022/02/02 11:18:35;;;;;;;34.03;21.43;;;;;;;3.33;100.00;100063.27;1723130;82;21049;-84
2022/02/02 11:21:11;;;;;;;33.95;21.62;;;;;;;3.35;100.00;100058.88;1742438;80;21060;-85
2022/02/02 11:23:43;;;;;;;35.65;20.90;;;;;;;3.33;100.00;100054.25;1745727;80;21085;-85
2022/02/02 11:26:13;;;;;;;38.92;21.97;;;;;;;3.23;100.00;100054.40;1720361;80;21081;-85
2022/02/02 11:28:49;;;;;;;35.68;20.57;;;;;;;2.96;100.00;100051.92;1707473;81;21085;-86
2022/02/02 11:31:18;;;;;;;36.42;20.90;;;;;;;2.96;100.00;100051.92;1695578;80;40391;-86
2022/02/02 11:33:54;;;;;;;32.08;20.68;;;;;;;2.93;100.00;100044.80;1736077;80;21070;-87
2022/02/02 11:36:32;;;;;;;29.50;18.52;;;;;;;2.94;100.00;100047.75;1763859;79;21040;-87
2022/02/02 11:38:57;;;;;;;32.98;18.32;;;;;;;2.88;100.00;100054.50;1760514;80;21062;-88
2022/02/02 11:44:12;;;;;;;31.00;19.50;;;;;;;2.91;100.00;100050.50;1763216;81;21091;-90
2022/02/02 11:49:59;;;;;;;30.17;19.17;;;;;;;2.94;100.00;100042.16;1762331;79;21024;-94
2022/02/02 11:52:46;;;;;;;36.50;18.70;;;;;;;2.94;100.00;100042.16;1769808;79;21033;-89
2022/02/02 11:55:19;;;;;;;34.45;18.82;;;;;;;3.08;100.00;100044.45;1741461;79;21063;-88
2022/02/02 11:58:01;;;;;;;31.62;19.27;;;;;;;3.12;100.00;100049.36;1724505;82;20996;-86
2022/02/02 12:00:49;;;;;;;34.03;19.73;;;;;;;3.05;100.00;100044.60;1775312;79;26646;-89
2022/02/02 12:47:31;;;;;;;39.33;20.68;;;;;;;2.57;100.00;100050.47;1717799;82;21076;-84
2022/02/02 13:01:07;;;;;;;63.70;21.65;;;;;;;2.29;100.00;100061.30;1759887;79;21041;-86
2022/02/02 13:03:37;;;;;;;65.85;20.57;;;;;;;2.42;100.00;100062.38;1713014;82;21136;-87
2022/02/02 13:06:15;;;;;;;42.03;20.05;;;;;;;2.61;100.00;100062.71;1710894;82;21513;-87
2022/02/02 13:08:43;;;;;;;58.52;20.48;;;;;;;2.87;100.00;100068.27;1724687;81;21045;-86
2022/02/02 13:11:11;;;;;;;51.85;20.35;;;;;;;2.87;100.00;100068.27;1720645;82;21050;-86
2022/02/02 13:13:46;;;;;;;44.95;19.62;;;;;;;3.08;100.00;100055.59;1715225;83;21236;-85
2022/02/02 13:16:23;;;;;;;51.23;20.23;;;;;;;3.26;100.00;100056.79;1760739;80;21085;-86
2022/02/02 13:18:55;;;;;;;41.15;20.70;;;;;;;3.51;100.00;100070.47;1747678;79;21946;-86
2022/02/02 13:21:27;;;;;;;42.23;21.17;;;;;;;3.51;100.00;100070.47;1715650;81;20999;-86
2022/02/02 13:32:54;;;;;;;47.25;27.07;;;;;;;3.60;100.00;100053.23;1755150;81;21182;-90
2022/02/02 13:34:55;;;;;;;38.70;21.75;;;;;;;3.43;100.00;100055.42;1721138;81;21075;-87
2022/02/02 13:43:39;;;;;;;43.98;24.18;;;;;;;3.11;100.00;100060.55;1712705;83;21494;-86
2022/02/02 13:46:19;;;;;;;42.70;24.72;;;;;;;3.00;100.00;100055.98;1713226;81;21234;-86
2022/02/02 13:48:57;;;;;;;44.53;27.50;;;;;;;2.93;100.00;100067.50;1767880;78;21039;-88
2022/02/02 14:05:17;;;;;;;92.02;58.33;;;;;;;3.05;100.00;100057.47;1692691;81;21022;-86
2022/02/02 14:07:24;;;;;;;60.60;38.73;;;;;;;3.06;100.00;100059.98;1737515;80;21045;-86
2022/02/02 14:32:26;;;;;;;32.23;21.17;;;;;;;2.18;100.00;100071.67;1713343;81;21101;-86
2022/02/02 14:34:58;;;;;;;32.25;21.02;;;;;;;2.18;100.00;100058.83;1740069;79;21081;-84
2022/02/02 14:37:40;;;;;;;36.80;22.93;;;;;;;2.23;100.00;100063.74;1734817;80;21085;-85
2022/02/02 14:40:13;;;;;;;39.70;23.07;;;;;;;2.25;100.00;100059.34;1719196;81;21584;-87
2022/02/02 14:42:42;;;;;;;39.50;22.82;;;;;;;2.45;100.00;100064.77;1728668;81;21033;-85
2022/02/02 14:45:13;;;;;;;42.08;23.15;;;;;;;2.45;100.00;100064.77;1726318;81;21082;-87
2022/02/02 14:47:44;;;;;;;36.30;22.85;;;;;;;2.63;100.00;100056.61;1701523;81;21057;-90
2022/02/02 14:50:26;;;;;;;40.33;22.07;;;;;;;2.74;100.00;100057.34;1732606;80;21023;-90
2022/02/02 14:56:04;;;;;;;25.00;17.95;;;;;;;2.86;100.00;100069.17;1736571;80;21009;-84
2022/02/02 15:28:20;;;;;;;152.43;39.30;;;;;;;3.39;100.00;100073.25;1720372;81;21145;-91
2022/02/02 15:31:06;;;;;;;133.78;44.38;;;;;;;3.39;100.00;100073.25;1701759;82;21111;-87
2022/02/02 15:33:12;;;;;;;115.08;45.83;;;;;;;3.88;100.00;100076.16;1712427;80;22057;-91
2022/02/02 15:35:42;;;;;;;114.80;44.25;;;;;;;3.99;100.00;100080.70;1704558;82;21530;-88
2022/02/02 15:38:24;;;;;;;68.83;32.10;;;;;;;4.08;100.00;100072.46;1734813;80;21054;-88
2022/02/02 15:40:46;;;;;;;67.67;32.90;;;;;;;4.21;100.00;100080.77;1733090;82;21061;-85
2022/02/02 15:57:29;;;;;;;89.03;33.05;;;;;;;4.57;100.00;100100.20;1706708;81;21035;-92
2022/02/02 15:59:16;;;;;;;62.10;32.28;;;;;;;4.45;100.00;100100.94;1725889;81;21326;-90
2022/02/02 16:04:30;;;;;;;49.83;27.67;;;;;;;4.62;100.00;100094.31;1681878;83;21045;-90
2022/02/02 16:06:54;;;;;;;92.85;32.42;;;;;;;4.78;100.00;100095.55;1697574;81;21144;-90
2022/02/02 16:12:06;;;;;;;78.50;31.95;;;;;;;5.18;100.00;100095.73;1724759;81;21924;-89
2022/02/02 16:14:28;;;;;;;61.73;29.20;;;;;;;5.31;100.00;100091.94;1704833;81;21447;-84
2022/02/02 16:19:33;;;;;;;41.65;21.68;;;;;;;5.02;100.00;100086.78;1721951;80;21089;-86
2022/02/02 16:25:03;;;;;;;32.98;17.70;;;;;;;4.29;100.00;100091.47;1737942;80;21105;-85
2022/02/02 16:33:13;;;;;;;29.82;17.37;;;;;;;3.45;100.00;100093.51;1724537;81;21105;-84
2022/02/02 16:36:12;;;;;;;35.15;18.42;;;;;;;3.26;100.00;100095.39;1735312;81;21049;-84
2022/02/02 16:37:59;;;;;;;35.80;20.70;;;;;;;3.09;100.00;100093.71;1711531;82;21092;-83
2022/02/02 16:40:35;;;;;;;71.47;35.43;;;;;;;2.98;100.00;100095.56;1734555;80;22157;-84
2022/02/02 16:45:36;;;;;;;97.05;48.75;;;;;;;2.77;100.00;100094.92;1745130;81;21109;-83
2022/02/02 16:48:06;;;;;;;72.87;36.28;;;;;;;2.64;100.00;100087.84;1779445;78;20978;-84
2022/02/02 16:50:37;;;;;;;55.48;30.12;;;;;;;2.59;100.00;100096.22;1743424;80;22088;-87
2022/02/02 16:56:14;;;;;;;43.68;26.30;;;;;;;2.44;100.00;100090.55;1745313;81;21068;-82
2022/02/02 17:31:48;;;;;;;30.43;16.45;;;;;;;2.32;100.00;100104.38;1765302;79;21053;-89
2022/02/02 17:34:03;;;;;;;33.92;16.73;;;;;;;2.53;100.00;100094.78;1767743;81;22092;-88
2022/02/02 17:36:48;;;;;;;31.90;17.40;;;;;;;2.53;100.00;100094.78;1763352;79;21030;-84
2022/02/02 17:39:13;;;;;;;34.23;18.95;;;;;;;2.59;100.00;100100.07;1719158;81;21066;-84
2022/02/02 18:12:13;;;;;;;105.72;60.73;;;;;;;1.71;100.00;100086.33;1762372;81;21078;-85
2022/02/02 18:22:32;;;;;;;52.50;28.35;;;;;;;1.52;100.00;100078.66;1727200;82;21065;-83
2022/02/02 18:25:06;;;;;;;44.65;26.20;;;;;;;1.51;100.00;100084.22;1731497;80;21034;-83
2022/02/02 18:27:37;;;;;;;52.10;29.50;;;;;;;1.51;100.00;100084.22;1740710;80;21747;-82
2022/02/02 18:35:17;;;;;;;63.85;35.28;;;;;;;1.46;100.00;100084.89;1704597;81;21101;-85
2022/02/02 18:38:44;;;;;;;63.20;31.10;;;;;;;1.48;100.00;100090.80;1726300;81;21587;-81
2022/02/02 18:48:20;;;;;;;61.00;34.70;;;;;;;1.57;100.00;100080.08;1734332;81;21999;-81
2022/02/02 18:58:36;;;;;;;58.25;32.67;;;;;;;1.56;100.00;100072.46;1716831;82;21511;-82
2022/02/02 19:31:23;;;;;;;28.25;18.42;;;;;;;1.70;100.00;100062.38;1742544;80;21105;-81
2022/02/02 20:04:17;;;;;;;26.97;16.60;;;;;;;1.41;100.00;100075.27;1757217;81;21046;-80
2022/02/02 20:11:35;;;;;;;28.45;19.10;;;;;;;1.43;100.00;100071.37;1769637;80;21045;-81
2022/02/02 20:14:04;;;;;;;;;;;;;;;1.44;100.00;100068.73;1750032;80;21792;-79
2022/02/02 20:16:33;;;;;;;29.25;18.55;;;;;;;1.44;100.00;100068.73;1732238;82;20690;-80
2022/02/02 20:19:05;;;;;;;28.40;19.75;;;;;;;1.45;100.00;100072.96;1769991;79;21140;-79
2022/02/02 20:21:35;;;;;;;31.62;20.27;;;;;;;1.46;100.00;100072.06;1747701;80;21108;-80
2022/02/02 20:24:03;;;;;;;32.75;20.90;;;;;;;1.45;100.00;100070.83;1759876;79;21064;-79
2022/02/02 20:26:33;;;;;;;33.40;21.85;;;;;;;1.44;100.00;100075.14;1735911;81;21203;-83
2022/02/02 20:29:01;;;;;;;34.63;21.27;;;;;;;1.46;100.00;100079.76;1732694;79;21822;-80
2022/02/02 20:31:32;;;;;;;32.98;22.27;;;;;;;1.46;100.00;100080.20;1739110;81;21547;-79
2022/02/02 20:33:58;;;;;;;33.38;23.05;;;;;;;1.46;100.00;100084.05;1689168;83;21049;-79
2022/02/02 20:36:26;;;;;;;40.00;25.02;;;;;;;1.48;100.00;100083.09;1742676;81;21065;-79
2022/02/02 20:38:53;;;;;;;39.58;26.23;;;;;;;1.50;100.00;100097.95;1736258;82;21547;-81
2022/02/02 20:41:20;;;;;;;39.40;25.25;;;;;;;1.50;100.00;100090.25;1750620;79;21540;-79
2022/02/02 20:43:56;;;;;;;41.30;26.23;;;;;;;1.49;100.00;100089.05;1750927;80;21657;-79
2022/02/02 20:46:46;;;;;;;42.17;26.48;;;;;;;1.49;100.00;100092.90;1725082;82;21043;-79
2022/02/02 21:00:34;;;;;;;38.00;22.00;;;;;;;1.44;100.00;100096.95;1743350;81;21053;-79
2022/02/02 21:10:24;;;;;;;40.35;22.77;;;;;;;1.60;100.00;100094.97;1764064;79;21522;-79
2022/02/02 21:15:36;;;;;;;37.40;23.77;;;;;;;1.66;100.00;100104.51;1762968;81;21009;-80
2022/02/02 21:18:14;;;;;;;46.28;27.20;;;;;;;1.65;100.00;100109.70;1764108;80;21249;-79
2022/02/02 21:25:48;;;;;;;42.95;25.52;;;;;;;1.53;100.00;100107.23;1725020;80;21074;-80
2022/02/02 21:28:12;;;;;;;39.23;22.70;;;;;;;1.48;100.00;100111.33;1759898;81;21081;-80
2022/02/02 21:30:42;;;;;;;35.60;21.93;;;;;;;1.46;100.00;100109.70;1742399;81;21243;-80
2022/02/02 21:33:14;;;;;;;36.17;21.82;;;;;;;1.42;100.00;100103.88;1763647;81;21699;-79
2022/02/02 21:35:40;;;;;;;34.10;21.17;;;;;;;1.39;100.00;100106.14;1759738;81;21063;-80
2022/02/02 21:38:18;;;;;;;32.15;19.62;;;;;;;1.39;100.00;100109.17;1738052;81;21599;-80
2022/02/02 21:40:36;;;;;;;31.15;19.92;;;;;;;1.39;100.00;100107.89;1730742;81;21005;-79
2022/02/02 21:43:04;;;;;;;30.20;19.40;;;;;;;1.40;100.00;100110.84;1733635;82;21109;-79
2022/02/02 21:45:32;;;;;;;29.27;18.73;;;;;;;1.39;100.00;100105.32;1728520;81;21002;-79
2022/02/02 21:48:01;;;;;;;31.12;19.67;;;;;;;1.38;100.00;100107.03;1733688;81;21090;-80
2022/02/02 21:50:42;;;;;;;28.80;18.82;;;;;;;1.38;100.00;100117.77;1712662;82;21093;-79
2022/02/02 21:52:57;;;;;;;29.87;19.82;;;;;;;1.38;100.00;100120.33;1730291;80;21038;-84
2022/02/02 21:55:24;;;;;;;30.45;19.52;;;;;;;1.38;100.00;100119.86;1763758;79;21109;-84
2022/02/02 21:57:51;;;;;;;28.92;18.60;;;;;;;1.39;100.00;100114.30;1763843;80;21354;-84
2022/02/02 22:00:18;;;;;;;27.13;18.30;;;;;;;1.38;100.00;100113.45;1763559;79;21097;-83
2022/02/02 22:02:47;;;;;;;32.30;21.57;;;;;;;1.38;100.00;100115.20;1764069;79;21073;-80
2022/02/02 22:05:14;;;;;;;28.52;19.50;;;;;;;1.36;100.00;100120.38;1741679;81;21073;-80
2022/02/02 22:07:41;;;;;;;32.35;21.05;;;;;;;1.35;100.00;100117.89;1764037;80;22069;-80
2022/02/02 22:10:09;;;;;;;33.20;20.15;;;;;;;1.34;100.00;100122.63;1763236;79;21084;-81
2022/02/02 22:12:38;;;;;;;31.57;21.15;;;;;;;1.34;100.00;100126.05;1735361;81;21583;-80
2022/02/02 22:15:15;;;;;;;35.52;22.25;;;;;;;1.34;100.00;100122.20;1733515;81;21062;-80